| time (UTC) | temp F | wind direction | speed knots | gust knots | rain 1hr in | rain 24hr in | rain mn in | humidity % | barometer mb |
| 20260906114711 | 71 | 359 | 0.0 | 0.9 | 0.00 | 0.00 | 0.00 | 97 | 1017.9 |
| 20260906114207 | 71 | 286 | 0.0 | 0.0 | 0.00 | 0.00 | 0.00 | 97 | 1018.1 |
| 20260906113702 | 71 | 285 | 0.0 | 0.0 | 0.00 | 0.00 | 0.00 | 97 | 1017.9 |
| 20260906113201 | 71 | 285 | 0.0 | 0.0 | 0.00 | 0.00 | 0.00 | 97 | 1018.0 |
| 20260906112701 | 71 | 261 | 0.0 | 0.0 | 0.00 | 0.00 | 0.00 | 97 | 1017.9 |
| 20260906112158 | 72 | 261 | 0.0 | 0.0 | 0.00 | 0.00 | 0.00 | 97 | 1017.6 |
| 20260906111657 | 72 | 260 | 0.0 | 0.0 | 0.00 | 0.00 | 0.00 | 97 | 1017.5 |
| 20260906111152 | 72 | 259 | 0.0 | 0.0 | 0.00 | 0.00 | 0.00 | 97 | 1017.7 |
| 20260906110647 | 72 | 259 | 0.0 | 0.0 | 0.00 | 0.00 | 0.00 | 97 | 1017.6 |
| 20260906110142 | 72 | 259 | 0.0 | 0.0 | 0.00 | 0.00 | 0.00 | 96 | 1017.8 |
| 20260906105636 | 72 | 258 | 0.0 | 0.0 | 0.00 | 0.00 | 0.00 | 96 | 1017.5 |
| 20260906105133 | 72 | 258 | 0.0 | 0.0 | 0.00 | 0.00 | 0.00 | 96 | 1017.3 |
| 20260906104632 | 72 | 194 | 0.0 | 0.9 | 0.00 | 0.00 | 0.00 | 96 | 1017.3 |
| 20260906104131 | 72 | 194 | 0.0 | 0.0 | 0.00 | 0.00 | 0.00 | 96 | 1017.5 |
| 20260906103629 | 72 | 194 | 0.0 | 0.0 | 0.00 | 0.00 | 0.00 | 95 | 1017.5 |
| 20260906103125 | 72 | 194 | 0.0 | 0.0 | 0.00 | 0.00 | 0.00 | 95 | 1017.5 |
| 20260906102620 | 72 | 194 | 0.0 | 0.0 | 0.00 | 0.00 | 0.00 | 95 | 1017.4 |
| 20260906102114 | 72 | 194 | 0.0 | 0.0 | 0.00 | 0.00 | 0.00 | 95 | 1017.4 |
| 20260906101609 | 72 | 194 | 0.0 | 0.0 | 0.00 | 0.00 | 0.00 | 95 | 1017.3 |
| 20260906101109 | 72 | 194 | 0.0 | 0.0 | 0.00 | 0.00 | 0.00 | 95 | 1017.3 |
| 20260906100604 | 72 | 194 | 0.0 | 0.0 | 0.00 | 0.00 | 0.00 | 95 | 1017.3 |
| 20260906100105 | 72 | 194 | 0.0 | 0.0 | 0.00 | 0.00 | 0.00 | 95 | 1017.2 |
| 20260906095604 | 73 | 194 | 0.0 | 0.0 | 0.00 | 0.00 | 0.00 | 94 | 1017.3 |
| 20260906095100 | 73 | 194 | 0.0 | 0.0 | 0.00 | 0.00 | 0.00 | 94 | 1017.1 |
| 20260906094559 | 73 | 194 | 0.0 | 0.0 | 0.00 | 0.00 | 0.00 | 95 | 1017.3 |
| 20260906094055 | 73 | 193 | 0.0 | 0.0 | 0.00 | 0.00 | 0.00 | 94 | 1017.6 |
| 20260906093550 | 73 | 193 | 0.0 | 0.0 | 0.00 | 0.00 | 0.00 | 94 | 1017.3 |
| 20260906093045 | 73 | 194 | 0.0 | 0.0 | 0.00 | 0.00 | 0.00 | 93 | 1017.5 |
| 20260906092540 | 73 | 194 | 0.0 | 0.0 | 0.00 | 0.00 | 0.00 | 93 | 1017.2 |
| 20260906092035 | 74 | 194 | 0.0 | 0.0 | 0.00 | 0.00 | 0.00 | 93 | 1017.1 |
| 20260906091531 | 73 | 194 | 0.0 | 0.0 | 0.00 | 0.00 | 0.00 | 91 | 1017.1 |
| 20260906091027 | 74 | 194 | 0.0 | 0.0 | 0.00 | 0.00 | 0.00 | 90 | 1017.3 |
| 20260906090522 | 73 | 194 | 0.0 | 0.0 | 0.00 | 0.00 | 0.00 | 90 | 1017.3 |
| 20260906090017 | 73 | 194 | 0.0 | 0.0 | 0.00 | 0.00 | 0.00 | 90 | 1017.3 |
| 20260906085516 | 74 | 194 | 0.0 | 0.0 | 0.00 | 0.00 | 0.00 | 91 | 1017.4 |
| 20260906085015 | 74 | 194 | 0.0 | 0.0 | 0.00 | 0.00 | 0.00 | 90 | 1017.2 |
| 20260906084510 | 74 | 194 | 0.0 | 0.0 | 0.00 | 0.00 | 0.00 | 90 | 1017.1 |
| 20260906084009 | 74 | 194 | 0.0 | 0.0 | 0.00 | 0.00 | 0.00 | 90 | 1017.1 |
| 20260906083505 | 74 | 194 | 0.0 | 0.0 | 0.00 | 0.00 | 0.00 | 89 | 1017.3 |
| 20260906083004 | 74 | 194 | 0.0 | 0.0 | 0.00 | 0.00 | 0.00 | 88 | 1017.1 |
| 20260906082459 | 75 | 194 | 0.0 | 0.0 | 0.00 | 0.00 | 0.00 | 87 | 1017.0 |
| 20260906081955 | 75 | 194 | 0.0 | 0.0 | 0.00 | 0.00 | 0.00 | 87 | 1017.0 |
| 20260906081450 | 75 | 194 | 0.0 | 0.0 | 0.00 | 0.00 | 0.00 | 86 | 1017.0 |
| 20260906080946 | 76 | 186 | 2.6 | 2.6 | 0.00 | 0.00 | 0.00 | 85 | 1017.1 |
| 20260906080442 | 76 | 195 | 1.7 | 1.7 | 0.00 | 0.00 | 0.00 | 85 | 1017.1 |
| 20260906075937 | 76 | 197 | 2.6 | 4.3 | 0.00 | 0.00 | 0.00 | 84 | 1017.1 |
| 20260906075432 | 75 | 183 | 0.9 | 1.7 | 0.00 | 0.00 | 0.00 | 85 | 1017.3 |
| 20260906074927 | 75 | 182 | 0.9 | 0.9 | 0.00 | 0.00 | 0.00 | 87 | 1017.1 |
| 20260906074421 | 75 | 191 | 0.9 | 1.7 | 0.00 | 0.00 | 0.00 | 86 | 1017.2 |
| 20260906073920 | 75 | 192 | 0.9 | 1.7 | 0.00 | 0.00 | 0.00 | 87 | 1017.2 |
| 20260906073415 | 75 | 187 | 0.0 | 0.0 | 0.00 | 0.00 | 0.00 | 87 | 1017.2 |
| 20260906072911 | 75 | 187 | 0.0 | 0.0 | 0.00 | 0.00 | 0.00 | 87 | 1017.1 |
| 20260906072406 | 75 | 188 | 0.0 | 0.9 | 0.00 | 0.00 | 0.00 | 86 | 1017.1 |
| 20260906071902 | 75 | 183 | 0.0 | 0.0 | 0.00 | 0.00 | 0.00 | 87 | 1017.0 |
| 20260906071357 | 75 | 198 | 1.7 | 1.7 | 0.00 | 0.00 | 0.00 | 87 | 1017.1 |
| 20260906070853 | 75 | 193 | 0.0 | 0.9 | 0.00 | 0.00 | 0.00 | 88 | 1017.2 |
| 20260906070349 | 75 | 193 | 0.0 | 0.9 | 0.00 | 0.00 | 0.00 | 89 | 1017.3 |
| 20260906065844 | 75 | 193 | 0.0 | 0.0 | 0.00 | 0.00 | 0.00 | 88 | 1017.1 |
| 20260906065338 | 75 | 193 | 0.0 | 0.0 | 0.00 | 0.00 | 0.00 | 89 | 1017.3 |
| 20260906064835 | 74 | 193 | 0.0 | 0.0 | 0.00 | 0.00 | 0.00 | 93 | 1017.3 |
| 20260906064331 | 73 | 193 | 0.0 | 0.0 | 0.00 | 0.00 | 0.00 | 98 | 1017.2 |
| 20260906063831 | 73 | 192 | 0.0 | 0.0 | 0.00 | 0.00 | 0.00 | 99 | 1017.4 |
| 20260906063326 | 73 | 187 | 1.7 | 1.7 | 0.00 | 0.00 | 0.00 | 99 | 1017.1 |
| 20260906062821 | 73 | 189 | 0.0 | 1.7 | 0.00 | 0.00 | 0.00 | 99 | 1017.2 |
| 20260906062320 | 73 | 197 | 0.9 | 2.6 | 0.00 | 0.00 | 0.00 | 99 | 1017.4 |
| 20260906061816 | 73 | 191 | 0.9 | 0.9 | 0.00 | 0.00 | 0.00 | 99 | 1017.5 |
| 20260906061312 | 73 | 162 | 0.0 | 2.6 | 0.00 | 0.00 | 0.00 | 99 | 1017.4 |
| 20260906060807 | 73 | 173 | 0.0 | 0.9 | 0.00 | 0.00 | 0.00 | 99 | 1017.5 |
| 20260906060305 | 73 | 193 | 1.7 | 2.6 | 0.00 | 0.00 | 0.00 | 99 | 1018.0 |
| 20260906055800 | 73 | 179 | 2.6 | 2.6 | 0.00 | 0.00 | 0.00 | 99 | 1018.1 |
| 20260906055255 | 73 | 195 | 1.7 | 1.7 | 0.00 | 0.00 | 0.00 | 99 | 1018.2 |
| 20260906054750 | 73 | 186 | 0.9 | 1.7 | 0.00 | 0.00 | 0.00 | 99 | 1018.1 |
| 20260906054246 | 73 | 47 | 0.0 | 0.0 | 0.00 | 0.00 | 0.00 | 99 | 1018.0 |
| 20260906053742 | 73 | 47 | 0.0 | 0.9 | 0.00 | 0.00 | 0.00 | 99 | 1018.2 |
| 20260906053238 | 73 | 78 | 0.0 | 0.0 | 0.00 | 0.00 | 0.00 | 99 | 1018.1 |
| 20260906052733 | 73 | 78 | 0.0 | 0.0 | 0.00 | 0.00 | 0.00 | 99 | 1018.1 |
| 20260906052229 | 73 | 79 | 0.0 | 0.0 | 0.00 | 0.00 | 0.00 | 99 | 1017.8 |
| 20260906051726 | 73 | 48 | 0.0 | 0.9 | 0.00 | 0.00 | 0.00 | 99 | 1018.2 |
| 20260906051225 | 73 | 96 | 0.0 | 0.0 | 0.00 | 0.00 | 0.00 | 99 | 1018.2 |
| 20260906050720 | 73 | 143 | 0.0 | 0.0 | 0.00 | 0.00 | 0.00 | 99 | 1018.2 |
| 20260906050215 | 73 | 143 | 0.0 | 0.0 | 0.00 | 0.00 | 0.00 | 99 | 1017.9 |
| 20260906045714 | 72 | 143 | 0.0 | 0.9 | 0.00 | 2.27 | 2.27 | 99 | 1018.1 |
| 20260906045209 | 73 | 59 | 0.9 | 1.7 | 0.00 | 2.27 | 2.27 | 99 | 1018.2 |
| 20260906044705 | 72 | 137 | 0.0 | 0.9 | 0.00 | 2.27 | 2.27 | 99 | 1018.4 |
| 20260906044200 | 73 | 105 | 0.0 | 0.9 | 0.00 | 2.27 | 2.27 | 99 | 1018.5 |
| 20260906043656 | 73 | 162 | 0.0 | 1.7 | 0.00 | 2.27 | 2.27 | 99 | 1018.0 |
| 20260906043152 | 73 | 61 | 0.0 | 0.9 | 0.00 | 2.27 | 2.27 | 99 | 1018.1 |
| 20260906042651 | 74 | 226 | 3.5 | 5.2 | 0.00 | 2.27 | 2.27 | 99 | 1018.5 |
| 20260906042145 | 75 | 135 | 0.0 | 0.9 | 0.00 | 2.27 | 2.27 | 99 | 1018.5 |
| 20260906041641 | 75 | 37 | 0.9 | 1.7 | 0.00 | 2.27 | 2.27 | 99 | 1017.7 |
| 20260906041136 | 75 | 84 | 0.0 | 0.0 | 0.00 | 2.27 | 2.27 | 99 | 1017.5 |
| 20260906040632 | 75 | 159 | 0.0 | 0.0 | 0.00 | 2.27 | 2.27 | 99 | 1017.4 |
| 20260906040127 | 75 | 160 | 0.0 | 0.0 | 0.00 | 2.27 | 2.27 | 99 | 1017.4 |
| 20260906035622 | 75 | 128 | 0.0 | 0.9 | 0.00 | 2.27 | 2.27 | 99 | 1017.5 |
| 20260906035118 | 75 | 109 | 0.0 | 0.0 | 0.00 | 2.27 | 2.27 | 99 | 1017.5 |
| 20260906034618 | 75 | 137 | 0.0 | 0.0 | 0.00 | 2.27 | 2.27 | 99 | 1017.4 |
| 20260906034112 | 75 | 120 | 0.0 | 1.7 | 0.00 | 2.27 | 2.27 | 99 | 1017.4 |
| 20260906033608 | 75 | 66 | 0.0 | 0.9 | 0.00 | 2.27 | 2.27 | 99 | 1017.8 |
| 20260906033103 | 75 | 64 | 0.0 | 1.7 | 0.00 | 2.27 | 2.27 | 99 | 1017.9 |
| 20260906032600 | 74 | 54 | 0.0 | 1.7 | 0.00 | 2.27 | 2.27 | 99 | 1018.1 |
| 20260906032059 | 74 | 43 | 0.0 | 0.0 | 0.00 | 2.27 | 2.27 | 99 | 1018.0 |
| 20260906031555 | 74 | 55 | 0.9 | 1.7 | 0.50 | 2.27 | 2.27 | 99 | 1018.0 |
| 20260906031050 | 74 | 0 | 0.0 | 1.7 | 1.09 | 2.27 | 2.27 | 99 | 1018.0 |
| 20260906030549 | 75 | 40 | 0.9 | 4.3 | 1.21 | 2.16 | 2.16 | 99 | 1017.9 |
| 20260906030044 | 75 | 33 | 2.6 | 7.0 | 1.44 | 2.07 | 2.07 | 99 | 1017.9 |
| 20260906025544 | 76 | 15 | 1.7 | 1.7 | 1.30 | 1.95 | 1.95 | 99 | 1017.4 |
| 20260906025042 | 76 | 273 | 0.0 | 1.7 | 1.18 | 1.82 | 1.82 | 99 | 1017.3 |
| 20260906024538 | 77 | 275 | 0.0 | 1.7 | 0.73 | 1.70 | 1.70 | 99 | 1017.3 |
| 20260906024037 | 78 | 293 | 0.9 | 0.9 | 0.14 | 1.60 | 1.60 | 95 | 1017.0 |
| 20260906023534 | 77 | 154 | 0.0 | 0.0 | 0.00 | 1.58 | 1.58 | 93 | 1017.0 |
| 20260906023028 | 77 | 154 | 0.0 | 0.0 | 0.00 | 1.58 | 1.58 | 92 | 1016.7 |
| 20260906022524 | 77 | 154 | 0.0 | 0.0 | 0.00 | 1.58 | 1.58 | 91 | 1016.5 |
| 20260906022019 | 78 | 155 | 0.0 | 0.0 | 0.00 | 1.58 | 1.58 | 90 | 1016.7 |
| 20260906021514 | 78 | 187 | 0.0 | 0.9 | 0.00 | 1.58 | 1.58 | 87 | 1016.5 |
| 20260906021008 | 79 | 185 | 0.0 | 1.7 | 0.00 | 1.58 | 1.58 | 88 | 1016.5 |
| 20260906020508 | 79 | 178 | 0.0 | 0.9 | 0.00 | 1.58 | 1.58 | 88 | 1016.5 |
| 20260906020007 | 79 | 275 | 1.7 | 1.7 | 0.00 | 1.58 | 1.58 | 89 | 1016.5 |
| 20260906015507 | 79 | 184 | 0.0 | 0.9 | 0.00 | 1.58 | 1.58 | 89 | 1016.4 |
| 20260906015006 | 79 | 284 | 5.2 | 6.1 | 0.28 | 1.58 | 1.58 | 86 | 1016.5 |
| 20260906014501 | 80 | 119 | 0.0 | 0.9 | 0.47 | 1.57 | 1.57 | 82 | 1016.1 |
| 20260906013957 | 84 | 303 | 5.2 | 13.9 | 0.12 | 1.51 | 1.51 | 75 | 1016.4 |
| 20260906013453 | 85 | 262 | 2.6 | 4.3 | 0.00 | 1.49 | 1.49 | 68 | 1016.4 |
| 20260906012949 | 84 | 283 | 2.6 | 4.3 | 0.00 | 1.49 | 1.49 | 71 | 1016.5 |
| 20260906012449 | 83 | 43 | 0.9 | 0.9 | 0.00 | 1.49 | 1.49 | 73 | 1016.1 |
| 20260906011948 | 83 | 38 | 0.0 | 1.7 | 0.00 | 1.49 | 1.49 | 73 | 1016.2 |
| 20260906011443 | 84 | 157 | 0.9 | 1.7 | 0.00 | 1.49 | 1.49 | 71 | 1015.9 |
| 20260906010939 | 84 | 178 | 0.9 | 1.7 | 0.00 | 1.49 | 1.49 | 70 | 1015.9 |
| 20260906010434 | 84 | 198 | 2.6 | 4.3 | 0.00 | 1.49 | 1.49 | 70 | 1015.8 |
| 20260906005930 | 83 | 181 | 0.9 | 0.9 | 0.00 | 1.49 | 1.49 | 74 | 1015.8 |
| 20260906005430 | 83 | 115 | 0.0 | 0.0 | 0.00 | 1.49 | 1.49 | 74 | 1016.0 |
| 20260906004928 | 84 | 115 | 0.0 | 0.0 | 0.00 | 1.49 | 1.49 | 73 | 1016.2 |
| 20260906004422 | 84 | 179 | 0.9 | 1.7 | 0.00 | 1.49 | 1.49 | 72 | 1016.0 |
| 20260906003918 | 85 | 132 | 0.0 | 0.9 | 0.00 | 1.49 | 1.49 | 70 | 1016.1 |
| 20260906003414 | 84 | 37 | 0.9 | 1.7 | 0.00 | 1.49 | 1.49 | 70 | 1016.0 |
| 20260906002909 | 84 | 168 | 0.9 | 0.9 | 0.00 | 1.49 | 1.49 | 70 | 1016.4 |
| 20260906002408 | 84 | 160 | 0.0 | 0.9 | 0.00 | 1.49 | 1.49 | 76 | 1016.3 |
| 20260906001904 | 84 | 106 | 0.0 | 0.0 | 0.00 | 1.49 | 1.49 | 78 | 1016.7 |
| 20260906001359 | 83 | 137 | 0.9 | 1.7 | 0.00 | 1.49 | 1.49 | 78 | 1016.7 |
| 20260906000854 | 80 | 64 | 0.9 | 0.9 | 0.00 | 1.49 | 1.49 | 86 | 1016.7 |
| 20260906000355 | 78 | 150 | 0.0 | 0.9 | 0.00 | 1.49 | 1.49 | 92 | 1016.5 |
| 20260905235849 | 77 | 71 | 0.9 | 0.9 | 0.00 | 1.49 | 1.49 | 99 | 1016.6 |
| 20260905235343 | 76 | 94 | 0.0 | 0.9 | 0.00 | 1.49 | 1.49 | 99 | 1016.4 |
| 20260905234838 | 76 | 84 | 2.6 | 6.1 | 0.00 | 1.49 | 1.49 | 99 | 1016.5 |
| 20260905234334 | 77 | 62 | 0.9 | 1.7 | 0.00 | 1.49 | 1.49 | 99 | 1016.6 |
| 20260905233829 | 77 | 42 | 0.9 | 1.7 | 0.00 | 1.49 | 1.49 | 99 | 1016.2 |
| 20260905233324 | 79 | 65 | 0.0 | 0.9 | 0.00 | 1.49 | 1.49 | 99 | 1016.0 |
| 20260905232822 | 79 | 81 | 0.0 | 0.0 | 0.00 | 1.49 | 1.49 | 99 | 1015.8 |
| 20260905232319 | 79 | 111 | 0.0 | 0.9 | 0.19 | 1.49 | 1.49 | 99 | 1015.6 |
| 20260905231815 | 79 | 153 | 0.0 | 0.0 | 0.92 | 1.49 | 1.49 | 99 | 1015.5 |
| 20260905231309 | 80 | 292 | 0.9 | 1.7 | 1.25 | 1.44 | 1.44 | 99 | 1015.4 |
| 20260905230806 | 80 | 321 | 0.0 | 0.9 | 1.37 | 1.32 | 1.32 | 99 | 1015.4 |
| 20260905230304 | 80 | 228 | 0.0 | 0.9 | 1.49 | 1.21 | 1.21 | 96 | 1015.6 |
| 20260905225803 | 81 | 281 | 0.0 | 0.9 | 1.44 | 1.07 | 1.07 | 93 | 1015.5 |
| 20260905225258 | 83 | 284 | 0.0 | 1.7 | 1.02 | 0.91 | 0.91 | 90 | 1015.5 |
| 20260905224758 | 95 | 163 | 0.0 | 1.7 | 0.19 | 0.77 | 0.77 | 79 | 1015.7 |
| 20260905224253 | 94 | 100 | 0.0 | 1.7 | 0.00 | 0.74 | 0.74 | 62 | 1015.4 |
| 20260905223749 | 95 | 182 | 0.9 | 0.9 | 0.00 | 0.74 | 0.74 | 61 | 1015.5 |
| 20260905223246 | 96 | 208 | 1.7 | 2.6 | 0.00 | 0.74 | 0.74 | 59 | 1015.5 |
| 20260905222741 | 96 | 130 | 0.0 | 0.9 | 0.00 | 0.74 | 0.74 | 57 | 1015.4 |
| 20260905222240 | 96 | 183 | 0.0 | 0.9 | 0.00 | 0.74 | 0.74 | 59 | 1015.6 |
| 20260905221736 | 96 | 201 | 0.0 | 0.9 | 0.00 | 0.74 | 0.74 | 58 | 1015.5 |
| 20260905221233 | 97 | 150 | 0.0 | 1.7 | 0.00 | 0.74 | 0.74 | 55 | 1015.6 |
| 20260905220729 | 97 | 300 | 0.9 | 1.7 | 0.00 | 0.74 | 0.74 | 52 | 1015.6 |
| 20260905220225 | 97 | 184 | 0.0 | 0.9 | 0.00 | 0.74 | 0.74 | 54 | 1015.6 |
| 20260905215724 | 97 | 174 | 0.0 | 0.9 | 0.00 | 0.74 | 0.74 | 54 | 1015.3 |
| 20260905215220 | 96 | 80 | 1.7 | 2.6 | 0.00 | 0.74 | 0.74 | 54 | 1015.7 |
| 20260905214715 | 97 | 106 | 2.6 | 4.3 | 0.00 | 0.74 | 0.74 | 53 | 1015.3 |
| 20260905214210 | 99 | 86 | 0.0 | 0.9 | 0.00 | 0.74 | 0.74 | 53 | 1015.4 |
| 20260905213706 | 100 | 30 | 1.7 | 4.3 | 0.00 | 0.74 | 0.74 | 48 | 1015.3 |
| 20260905213202 | 100 | 199 | 0.9 | 1.7 | 0.00 | 0.74 | 0.74 | 49 | 1015.5 |
| 20260905212657 | 98 | 204 | 0.9 | 1.7 | 0.00 | 0.74 | 0.74 | 50 | 1015.6 |
| 20260905212155 | 98 | 202 | 2.6 | 4.3 | 0.00 | 0.74 | 0.74 | 51 | 1015.7 |
| 20260905211651 | 98 | 194 | 2.6 | 4.3 | 0.00 | 0.74 | 0.74 | 50 | 1015.6 |
| 20260905211146 | 97 | 208 | 0.0 | 2.6 | 0.00 | 0.74 | 0.74 | 51 | 1015.6 |
| 20260905210643 | 99 | 196 | 2.6 | 5.2 | 0.00 | 0.74 | 0.74 | 48 | 1015.8 |
| 20260905210143 | 98 | 208 | 0.0 | 0.9 | 0.00 | 0.74 | 0.74 | 50 | 1015.8 |
| 20260905205642 | 98 | 225 | 1.7 | 4.3 | 0.00 | 0.74 | 0.74 | 53 | 1016.1 |
| 20260905205142 | 98 | 206 | 4.3 | 5.2 | 0.00 | 0.74 | 0.74 | 53 | 1016.0 |
| 20260905204641 | 100 | 199 | 3.5 | 4.3 | 0.00 | 0.74 | 0.74 | 47 | 1016.2 |
| 20260905204136 | 99 | 275 | 1.7 | 1.7 | 0.00 | 0.74 | 0.74 | 48 | 1016.0 |
| 20260905203637 | 101 | 118 | 0.9 | 5.2 | 0.00 | 0.74 | 0.74 | 49 | 1016.2 |
| 20260905203132 | 101 | 50 | 0.9 | 2.6 | 0.00 | 0.74 | 0.74 | 48 | 1016.1 |
| 20260905202628 | 101 | 275 | 3.5 | 4.3 | 0.00 | 0.74 | 0.74 | 47 | 1016.3 |
| 20260905202123 | 100 | 253 | 0.9 | 4.3 | 0.00 | 0.74 | 0.74 | 48 | 1016.2 |
| 20260905201619 | 100 | 42 | 2.6 | 5.2 | 0.00 | 0.74 | 0.74 | 49 | 1016.3 |
| 20260905201118 | 101 | 307 | 3.5 | 6.1 | 0.00 | 0.74 | 0.74 | 48 | 1016.3 |
| 20260905200614 | 100 | 238 | 0.0 | 1.7 | 0.00 | 0.74 | 0.74 | 49 | 1016.6 |
| 20260905200109 | 100 | 274 | 3.5 | 6.1 | 0.00 | 0.74 | 0.74 | 48 | 1016.5 |
| 20260905195607 | 100 | 258 | 0.0 | 0.9 | 0.00 | 0.74 | 0.74 | 50 | 1016.7 |
| 20260905195103 | 98 | 64 | 0.0 | 1.7 | 0.00 | 0.74 | 0.74 | 51 | 1016.8 |
| 20260905194602 | 98 | 38 | 1.7 | 2.6 | 0.00 | 0.74 | 0.74 | 51 | 1017.0 |
| 20260905194102 | 101 | 78 | 0.9 | 4.3 | 0.00 | 0.74 | 0.74 | 49 | 1017.2 |
| 20260905193557 | 100 | 176 | 0.9 | 1.7 | 0.00 | 0.74 | 0.74 | 50 | 1016.8 |
| 20260905193052 | 100 | 83 | 0.9 | 1.7 | 0.00 | 0.74 | 0.74 | 49 | 1017.0 |
| 20260905192547 | 99 | 269 | 1.7 | 1.7 | 0.00 | 0.74 | 0.74 | 49 | 1016.9 |
| 20260905192044 | 97 | 271 | 1.7 | 1.7 | 0.00 | 0.74 | 0.74 | 53 | 1017.0 |
| 20260905191541 | 96 | 55 | 0.0 | 0.9 | 0.00 | 0.74 | 0.74 | 54 | 1017.3 |
| 20260905191036 | 97 | 281 | 4.3 | 5.2 | 0.00 | 0.74 | 0.74 | 52 | 1017.1 |
| 20260905190534 | 97 | 177 | 0.0 | 0.0 | 0.00 | 0.74 | 0.74 | 51 | 1017.3 |
| 20260905190034 | 97 | 113 | 0.0 | 2.6 | 0.00 | 0.74 | 0.74 | 54 | 1017.3 |
| 20260905185533 | 98 | 277 | 3.5 | 4.3 | 0.00 | 0.74 | 0.74 | 50 | 1017.3 |
| 20260905185032 | 98 | 281 | 1.7 | 2.6 | 0.00 | 0.74 | 0.74 | 52 | 1017.2 |
| 20260905184527 | 99 | 273 | 3.5 | 5.2 | 0.00 | 0.74 | 0.74 | 51 | 1017.4 |
| 20260905184025 | 99 | 303 | 0.9 | 4.3 | 0.00 | 0.74 | 0.74 | 51 | 1017.5 |
| 20260905183520 | 99 | 233 | 0.0 | 4.3 | 0.00 | 0.74 | 0.74 | 52 | 1017.5 |
| 20260905183015 | 99 | 190 | 1.7 | 4.3 | 0.00 | 0.74 | 0.74 | 52 | 1017.9 |
| 20260905182515 | 98 | 165 | 1.7 | 2.6 | 0.00 | 0.74 | 0.74 | 53 | 1017.9 |
| 20260905182009 | 98 | 86 | 0.0 | 2.6 | 0.00 | 0.74 | 0.74 | 55 | 1018.0 |
| 20260905181504 | 97 | 142 | 0.0 | 1.7 | 0.00 | 0.74 | 0.74 | 55 | 1017.9 |
| 20260905181003 | 96 | 285 | 1.7 | 2.6 | 0.00 | 0.74 | 0.74 | 55 | 1017.9 |
| 20260905180458 | 97 | 274 | 1.7 | 2.6 | 0.00 | 0.74 | 0.74 | 54 | 1018.1 |
| 20260905175953 | 98 | 353 | 0.9 | 0.9 | 0.00 | 0.74 | 0.74 | 55 | 1018.0 |
| 20260905175452 | 98 | 78 | 0.9 | 2.6 | 0.00 | 0.74 | 0.74 | 55 | 1018.4 |
| 20260905174948 | 97 | 82 | 1.7 | 5.2 | 0.00 | 0.74 | 0.74 | 54 | 1018.4 |
| 20260905174443 | 97 | 316 | 2.6 | 5.2 | 0.00 | 0.74 | 0.74 | 55 | 1018.4 |
| 20260905173939 | 97 | 38 | 1.7 | 1.7 | 0.00 | 0.74 | 0.74 | 57 | 1018.4 |
| 20260905173435 | 97 | 168 | 1.7 | 4.3 | 0.00 | 0.74 | 0.74 | 57 | 1018.4 |
| 20260905172931 | 96 | 189 | 0.9 | 4.3 | 0.00 | 0.74 | 0.74 | 58 | 1018.7 |
| 20260905172428 | 93 | 45 | 0.9 | 2.6 | 0.00 | 0.74 | 0.74 | 63 | 1018.6 |
| 20260905171925 | 87 | 298 | 2.6 | 5.2 | 0.00 | 0.74 | 0.74 | 73 | 1018.6 |
| 20260905171421 | 81 | 317 | 0.9 | 4.3 | 0.00 | 0.74 | 0.74 | 97 | 1018.9 |
| 20260905170917 | 80 | 192 | 0.9 | 1.7 | 0.00 | 0.74 | 0.74 | 99 | 1018.6 |
| 20260905170413 | 81 | 210 | 1.7 | 2.6 | 0.00 | 0.74 | 0.74 | 99 | 1018.8 |
| 20260905165912 | 81 | 200 | 0.9 | 2.6 | 0.00 | 0.74 | 0.74 | 99 | 1019.1 |
| 20260905165407 | 80 | 273 | 2.6 | 2.6 | 0.00 | 0.74 | 0.74 | 99 | 1018.8 |
| 20260905164902 | 80 | 187 | 0.9 | 2.6 | 0.78 | 0.74 | 0.74 | 99 | 1019.0 |
| 20260905164357 | 82 | 271 | 0.9 | 1.7 | 1.21 | 0.70 | 0.70 | 99 | 1019.0 |
| 20260905163852 | 82 | 167 | 0.0 | 2.6 | 1.44 | 0.59 | 0.59 | 96 | 1018.9 |
| 20260905163349 | 82 | 60 | 0.0 | 0.9 | 1.51 | 0.47 | 0.47 | 95 | 1019.2 |
| 20260905162844 | 82 | 250 | 0.9 | 1.7 | 1.25 | 0.32 | 0.32 | 93 | 1019.1 |
| 20260905162344 | 82 | 182 | 1.7 | 4.3 | 1.25 | 0.21 | 0.21 | 89 | 1019.5 |
| 20260905161839 | 85 | 75 | 0.0 | 0.9 | 0.54 | 0.09 | 0.09 | 90 | 1019.4 |
| 20260905161338 | 93 | 262 | 0.9 | 2.6 | 0.00 | 0.00 | 0.00 | 65 | 1019.3 |
| 20260905160836 | 92 | 140 | 0.0 | 0.0 | 0.00 | 0.00 | 0.00 | 65 | 1019.5 |
| 20260905160331 | 92 | 206 | 0.9 | 1.7 | 0.00 | 0.00 | 0.00 | 66 | 1019.8 |
| 20260905155825 | 91 | 264 | 0.9 | 1.7 | 0.00 | 0.00 | 0.00 | 68 | 1019.6 |
| 20260905155325 | 92 | 188 | 0.0 | 2.6 | 0.00 | 0.00 | 0.00 | 66 | 1019.4 |
| 20260905154819 | 91 | 197 | 1.7 | 1.7 | 0.00 | 0.00 | 0.00 | 69 | 1019.6 |
| 20260905154315 | 90 | 175 | 1.7 | 1.7 | 0.00 | 0.00 | 0.00 | 70 | 1019.9 |
| 20260905153810 | 89 | 177 | 0.0 | 1.7 | 0.00 | 0.00 | 0.00 | 72 | 1019.9 |
| 20260905153307 | 89 | 213 | 2.6 | 2.6 | 0.00 | 0.00 | 0.00 | 71 | 1019.7 |
| 20260905152806 | 89 | 182 | 0.0 | 1.7 | 0.00 | 0.00 | 0.00 | 72 | 1020.1 |
| 20260905152306 | 88 | 195 | 0.9 | 1.7 | 0.00 | 0.00 | 0.00 | 74 | 1019.8 |
| 20260905151800 | 87 | 207 | 1.7 | 1.7 | 0.00 | 0.00 | 0.00 | 73 | 1019.8 |
| 20260905151255 | 88 | 142 | 0.0 | 0.9 | 0.00 | 0.00 | 0.00 | 74 | 1020.0 |
| 20260905150750 | 86 | 147 | 0.0 | 0.9 | 0.00 | 0.00 | 0.00 | 78 | 1019.8 |
| 20260905150250 | 84 | 269 | 0.9 | 1.7 | 0.00 | 0.00 | 0.00 | 80 | 1019.7 |
| 20260905145747 | 84 | 173 | 0.9 | 1.7 | 0.00 | 0.00 | 0.00 | 81 | 1020.0 |
| 20260905145242 | 84 | 191 | 0.0 | 0.9 | 0.00 | 0.00 | 0.00 | 82 | 1020.1 |
| 20260905144740 | 83 | 162 | 0.9 | 1.7 | 0.00 | 0.00 | 0.00 | 84 | 1020.1 |
| 20260905144236 | 82 | 195 | 0.0 | 0.0 | 0.00 | 0.00 | 0.00 | 87 | 1020.0 |
| 20260905143735 | 81 | 181 | 0.0 | 0.0 | 0.00 | 0.00 | 0.00 | 89 | 1020.0 |
| 20260905143235 | 81 | 246 | 0.0 | 0.9 | 0.00 | 0.00 | 0.00 | 89 | 1020.2 |
| 20260905142733 | 81 | 233 | 0.0 | 0.9 | 0.00 | 0.00 | 0.00 | 88 | 1020.1 |
| 20260905142228 | 81 | 46 | 0.0 | 0.9 | 0.00 | 0.00 | 0.00 | 89 | 1020.1 |
| 20260905141724 | 81 | 315 | 0.0 | 0.9 | 0.00 | 0.00 | 0.00 | 89 | 1020.0 |
| 20260905141220 | 80 | 328 | 0.0 | 0.9 | 0.00 | 0.00 | 0.00 | 89 | 1020.2 |
| 20260905140715 | 80 | 37 | 0.0 | 0.0 | 0.00 | 0.00 | 0.00 | 90 | 1020.0 |
| 20260905140209 | 80 | 278 | 0.0 | 0.0 | 0.00 | 0.00 | 0.00 | 90 | 1020.1 |
| 20260905135703 | 80 | 275 | 0.0 | 0.9 | 0.00 | 0.00 | 0.00 | 90 | 1020.2 |
| 20260905135200 | 80 | 269 | 0.0 | 0.0 | 0.00 | 0.00 | 0.00 | 91 | 1020.4 |
| 20260905134659 | 80 | 269 | 0.0 | 0.0 | 0.00 | 0.00 | 0.00 | 91 | 1020.2 |
| 20260905134158 | 80 | 269 | 0.0 | 0.0 | 0.00 | 0.00 | 0.00 | 91 | 1019.9 |
| 20260905133653 | 79 | 269 | 0.0 | 0.0 | 0.00 | 0.00 | 0.00 | 91 | 1020.1 |
| 20260905133148 | 79 | 269 | 0.0 | 0.0 | 0.00 | 0.00 | 0.00 | 92 | 1020.1 |
| 20260905132647 | 79 | 269 | 0.0 | 0.0 | 0.00 | 0.00 | 0.00 | 91 | 1020.3 |
| 20260905132142 | 79 | 269 | 0.0 | 0.9 | 0.00 | 0.00 | 0.00 | 91 | 1020.1 |
| 20260905131637 | 79 | 269 | 0.0 | 0.0 | 0.00 | 0.00 | 0.00 | 91 | 1020.2 |
| 20260905131132 | 79 | 269 | 0.0 | 0.0 | 0.00 | 0.00 | 0.00 | 91 | 1020.3 |
| 20260905130626 | 79 | 269 | 0.0 | 0.0 | 0.00 | 0.00 | 0.00 | 91 | 1020.4 |
| 20260905130121 | 78 | 269 | 0.0 | 0.0 | 0.00 | 0.00 | 0.00 | 92 | 1020.3 |
| 20260905125621 | 78 | 270 | 0.0 | 0.0 | 0.00 | 0.00 | 0.00 | 92 | 1020.2 |
| 20260905125117 | 78 | 270 | 0.0 | 0.0 | 0.00 | 0.00 | 0.00 | 92 | 1020.3 |
| 20260905124613 | 78 | 269 | 0.0 | 0.0 | 0.00 | 0.00 | 0.00 | 92 | 1020.2 |
| 20260905124109 | 78 | 269 | 0.0 | 0.0 | 0.00 | 0.00 | 0.00 | 92 | 1020.4 |
| 20260905123604 | 77 | 269 | 0.0 | 0.0 | 0.00 | 0.00 | 0.00 | 94 | 1020.3 |
| 20260905123101 | 77 | 268 | 0.0 | 0.0 | 0.00 | 0.00 | 0.00 | 94 | 1020.3 |
| 20260905122601 | 77 | 269 | 0.0 | 0.0 | 0.00 | 0.00 | 0.00 | 95 | 1020.0 |
| 20260905122055 | 76 | 269 | 0.0 | 0.0 | 0.00 | 0.00 | 0.00 | 95 | 1020.2 |
| 20260905121550 | 76 | 295 | 0.0 | 0.0 | 0.00 | 0.00 | 0.00 | 96 | 1020.1 |
| 20260905121045 | 75 | 295 | 0.0 | 0.0 | 0.00 | 0.00 | 0.00 | 96 | 1019.9 |
| 20260905120544 | 75 | 295 | 0.0 | 0.0 | 0.00 | 0.00 | 0.00 | 97 | 1019.9 |
| 20260905120039 | 75 | 295 | 0.0 | 0.0 | 0.00 | 0.00 | 0.00 | 97 | 1020.0 |
| 20260905115538 | 75 | 273 | 0.0 | 0.0 | 0.00 | 0.00 | 0.00 | 97 | 1019.9 |
| 20260905115033 | 75 | 295 | 0.0 | 0.0 | 0.00 | 0.00 | 0.00 | 97 | 1019.9 |